Time;durP1;ratioP1;P1;durP2;ratioP2;P2;SDS_P1;SDS_P2;PMS_P1;PMS_P2;Temp;Humidity;BMP_temperature;BMP_pressure;BME280_temperature;BME280_humidity;BME280_pressure;Samples;Min_cycle;Max_cycle;Signal;HPM_P1;HPM_P2
2022/11/03 00:01:34;;;;;;;9.00;7.83;;;;;;;2.39;100.00;97657.56;4981144;28;20242;-63
2022/11/03 00:04:03;;;;;;;8.77;8.07;;;;;;;2.45;100.00;97647.47;4955237;28;22384;-62
2022/11/03 00:06:31;;;;;;;8.47;7.77;;;;;;;2.42;100.00;97637.25;4996503;28;20386;-63
2022/11/03 00:09:00;;;;;;;31.83;9.60;;;;;;;2.37;100.00;97633.31;5000052;28;20432;-63
2022/11/03 00:11:28;;;;;;;7.10;6.60;;;;;;;2.31;100.00;97624.19;5001474;28;20672;-63
2022/11/03 00:13:58;;;;;;;22.13;8.90;;;;;;;2.34;100.00;97633.56;5000536;28;20980;-61
2022/11/03 00:16:26;;;;;;;23.93;9.87;;;;;;;2.35;100.00;97630.00;4981068;28;20223;-62
2022/11/03 00:18:55;;;;;;;7.43;6.73;;;;;;;2.41;100.00;97619.91;4999754;28;20349;-61
2022/11/03 00:21:23;;;;;;;14.60;9.83;;;;;;;2.35;100.00;97614.31;4958649;28;20207;-62
2022/11/03 00:23:51;;;;;;;6.33;5.83;;;;;;;2.40;100.00;97614.78;4999388;28;20489;-61
2022/11/03 00:26:21;;;;;;;13.10;6.90;;;;;;;2.39;100.00;97615.72;5001397;28;20469;-62
2022/11/03 00:28:51;;;;;;;12.20;6.90;;;;;;;2.39;100.00;97615.72;4999563;28;20223;-62
2022/11/03 00:31:22;;;;;;;19.07;6.63;;;;;;;2.35;100.00;97633.47;4978987;28;20361;-61
2022/11/03 00:33:50;;;;;;;7.17;6.50;;;;;;;2.43;100.00;97612.75;4999945;28;20610;-59
2022/11/03 00:36:20;;;;;;;16.70;7.83;;;;;;;2.34;100.00;97605.66;4956385;28;20230;-63
2022/11/03 00:38:48;;;;;;;11.10;6.80;;;;;;;2.36;100.00;97613.34;4990509;28;20963;-64
2022/11/03 00:41:19;;;;;;;13.37;7.33;;;;;;;2.24;100.00;97621.22;4999552;28;20436;-64
2022/11/03 00:43:47;;;;;;;6.50;5.83;;;;;;;2.19;100.00;97617.28;4999028;28;20208;-62
2022/11/03 00:46:16;;;;;;;6.97;6.27;;;;;;;2.25;100.00;97616.81;4979764;28;20204;-65
2022/11/03 00:48:46;;;;;;;24.33;11.10;;;;;;;2.17;100.00;97606.97;4999209;28;20520;-64
2022/11/03 00:51:15;;;;;;;20.30;8.30;;;;;;;2.36;100.00;97613.34;4957774;28;20388;-64
2022/11/03 00:53:46;;;;;;;16.27;6.63;;;;;;;2.44;100.00;97618.81;4997430;28;20683;-64
2022/11/03 00:56:15;;;;;;;16.87;7.07;;;;;;;2.46;100.00;97615.13;5000658;28;20368;-64
2022/11/03 00:58:44;;;;;;;63.83;12.83;;;;;;;2.50;100.00;97612.25;4999281;28;20227;-64
2022/11/03 01:01:14;;;;;;;28.43;10.03;;;;;;;2.58;100.00;97607.25;5004944;28;20256;-66
2022/11/03 01:06:48;;;;;;;34.67;9.47;;;;;;;2.57;100.00;97608.19;4980728;28;20869;-61
2022/11/03 01:06:52;;;;;;;7.47;6.93;;;;;;;2.54;100.00;97603.22;4958901;28;20207;-63
2022/11/03 01:09:22;;;;;;;11.17;7.20;;;;;;;2.55;100.00;97608.34;5002504;28;20222;-64
2022/11/03 01:11:56;;;;;;;30.90;8.70;;;;;;;2.57;100.00;97595.97;4940099;28;20227;-63
2022/11/03 01:14:25;;;;;;;8.00;7.03;;;;;;;2.63;100.00;97599.84;5004201;28;20204;-63
2022/11/03 01:16:54;;;;;;;11.37;7.53;;;;;;;2.51;100.00;97595.63;4986597;28;20203;-64
2022/11/03 01:19:24;;;;;;;42.90;10.73;;;;;;;2.57;100.00;97590.72;5001624;28;20371;-63
2022/11/03 01:21:52;;;;;;;17.70;8.37;;;;;;;2.67;100.00;97585.59;5000841;28;20199;-64
2022/11/03 01:24:21;;;;;;;13.03;8.00;;;;;;;2.68;100.00;97584.63;5004683;28;20575;-64
2022/11/03 01:26:49;;;;;;;11.83;7.17;;;;;;;2.63;100.00;97572.88;4956940;28;20212;-63
2022/11/03 01:29:17;;;;;;;24.70;9.77;;;;;;;2.56;100.00;97564.69;5004431;28;20623;-62
2022/11/03 01:31:46;;;;;;;15.13;9.77;;;;;;;2.60;100.00;97566.09;5003416;28;20472;-64
2022/11/03 01:34:16;;;;;;;31.47;9.23;;;;;;;2.62;100.00;97552.91;4981473;28;20406;-63
2022/11/03 01:36:45;;;;;;;10.47;6.93;;;;;;;2.58;100.00;97547.91;5003440;28;20203;-65
2022/11/03 01:39:15;;;;;;;8.17;7.03;;;;;;;2.64;100.00;97556.22;4998975;28;20494;-59
2022/11/03 01:41:45;;;;;;;23.70;10.17;;;;;;;2.66;100.00;97544.69;4958658;28;20396;-61
2022/11/03 01:44:31;;;;;;;22.83;10.43;;;;;;;2.62;100.00;97539.81;4999722;28;20488;-66
2022/11/03 01:47:11;;;;;;;17.17;8.20;;;;;;;2.69;100.00;97546.22;5002162;28;20203;-62
2022/11/03 01:49:44;;;;;;;13.50;8.33;;;;;;;2.69;100.00;97541.81;4979462;28;20967;-63
2022/11/03 01:52:17;;;;;;;12.60;8.00;;;;;;;2.76;100.00;97552.59;5003926;28;20219;-63
2022/11/03 01:54:48;;;;;;;12.80;8.70;;;;;;;2.83;100.00;97547.69;5002340;28;20288;-63
2022/11/03 01:57:21;;;;;;;8.00;7.30;;;;;;;2.90;100.00;97546.22;4957523;28;20227;-65
2022/11/03 01:59:49;;;;;;;14.43;9.20;;;;;;;2.88;100.00;97545.53;5001934;28;20226;-63
2022/11/03 02:02:18;;;;;;;38.73;12.83;;;;;;;2.99;100.00;97544.66;5003220;28;20911;-61
2022/11/03 02:04:46;;;;;;;29.33;10.17;;;;;;;3.06;100.00;97540.56;4979541;28;20213;-63
2022/11/03 02:07:21;;;;;;;8.90;7.90;;;;;;;3.09;100.00;97521.97;4990824;28;20288;-64
2022/11/03 02:09:49;;;;;;;10.83;8.20;;;;;;;3.16;100.00;97530.16;5003487;28;20366;-64
2022/11/03 02:12:22;;;;;;;12.03;9.43;;;;;;;3.15;100.00;97525.88;4974401;28;20223;-64
2022/11/03 02:14:53;;;;;;;9.27;8.33;;;;;;;3.21;100.00;97521.91;5001102;28;21337;-64
2022/11/03 02:17:22;;;;;;;29.87;11.50;;;;;;;3.19;100.00;97511.56;5000128;28;20469;-63
2022/11/03 02:19:52;;;;;;;18.53;9.40;;;;;;;3.20;100.00;97513.22;4979809;28;20231;-62
2022/11/03 02:22:56;;;;;;;57.83;14.60;;;;;;;3.17;100.00;97510.88;5000787;28;20196;-62
2022/11/03 02:25:35;;;;;;;26.87;9.47;;;;;;;3.21;100.00;97509.66;4998707;28;20683;-62
2022/11/03 02:28:04;;;;;;;10.90;9.60;;;;;;;3.22;100.00;97511.31;5002882;28;20223;-64
2022/11/03 02:30:36;;;;;;;21.80;8.73;;;;;;;3.25;100.00;97499.75;4958900;28;20446;-61
2022/11/03 02:33:11;;;;;;;44.43;11.07;;;;;;;3.33;100.00;97492.06;5003741;28;20320;-62
2022/11/03 02:35:43;;;;;;;34.60;12.40;;;;;;;3.23;100.00;97486.78;4976496;28;20219;-63
2022/11/03 02:38:14;;;;;;;43.67;12.30;;;;;;;3.29;100.00;97490.69;5002636;28;20233;-63
2022/11/03 02:40:48;;;;;;;12.80;7.60;;;;;;;3.33;100.00;97486.84;5000064;28;20432;-64
2022/11/03 02:43:19;;;;;;;12.70;9.13;;;;;;;3.32;100.00;97485.16;4977627;28;20582;-63
2022/11/03 02:45:48;;;;;;;20.03;10.77;;;;;;;3.24;100.00;97479.75;4992976;28;20658;-61
2022/11/03 02:48:18;;;;;;;22.57;10.63;;;;;;;3.23;100.00;97485.97;5001339;28;20417;-67
2022/11/03 02:50:47;;;;;;;14.83;10.07;;;;;;;3.27;100.00;97479.50;4982286;28;20693;-61
2022/11/03 02:53:16;;;;;;;25.17;10.30;;;;;;;3.29;100.00;97481.00;5001947;28;20225;-63
2022/11/03 02:55:52;;;;;;;18.60;9.33;;;;;;;3.39;100.00;97467.97;5003745;28;20207;-62
2022/11/03 02:58:25;;;;;;;28.13;9.20;;;;;;;3.38;100.00;97465.47;5006243;28;20229;-64
2022/11/03 03:00:55;;;;;;;53.47;13.90;;;;;;;3.42;100.00;97465.09;4955872;28;20219;-63
2022/11/03 03:03:26;;;;;;;15.40;8.20;;;;;;;3.42;100.00;97457.22;4999062;28;20426;-64
2022/11/03 03:05:58;;;;;;;34.93;14.10;;;;;;;3.44;100.00;97455.31;5002148;28;20489;-60
2022/11/03 03:08:27;;;;;;;20.40;11.43;;;;;;;3.46;100.00;97461.25;4977669;28;20333;-62
2022/11/03 03:10:59;;;;;;;38.17;11.03;;;;;;;3.41;100.00;97450.31;5002573;28;20233;-60
2022/11/03 03:13:27;;;;;;;8.30;7.60;;;;;;;3.50;100.00;97453.94;4999249;28;20239;-61
2022/11/03 03:16:05;;;;;;;44.50;16.23;;;;;;;3.45;100.00;97464.00;4955135;28;21002;-63
2022/11/03 03:18:42;;;;;;;14.83;8.23;;;;;;;3.44;100.00;97454.50;4933780;28;20226;-62
2022/11/03 03:21:13;;;;;;;12.00;8.40;;;;;;;3.49;100.00;97449.69;5001592;28;20200;-66
2022/11/03 03:23:48;;;;;;;15.93;8.20;;;;;;;3.55;100.00;97446.53;4982489;28;20200;-65
2022/11/03 03:26:22;;;;;;;11.10;7.80;;;;;;;3.64;100.00;97442.28;5001510;28;20637;-63
2022/11/03 03:28:53;;;;;;;10.10;8.50;;;;;;;3.61;100.00;97434.69;4999585;28;20743;-64
2022/11/03 03:31:22;;;;;;;63.17;15.40;;;;;;;3.65;100.00;97443.09;5002709;28;20199;-66
2022/11/03 03:33:52;;;;;;;21.23;8.90;;;;;;;3.62;100.00;97438.97;4952999;28;20409;-62
2022/11/03 03:36:38;;;;;;;37.23;12.30;;;;;;;3.61;100.00;97442.56;4998873;28;20208;-63
2022/11/03 03:39:08;;;;;;;38.43;10.67;;;;;;;3.55;100.00;97433.41;5002124;28;20930;-61
2022/11/03 03:41:38;;;;;;;56.33;18.13;;;;;;;3.51;100.00;97433.81;4980329;28;20212;-63
2022/11/03 03:44:09;;;;;;;60.33;13.67;;;;;;;3.56;100.00;97444.72;5001344;28;20765;-64
2022/11/03 03:46:39;;;;;;;40.97;12.40;;;;;;;3.49;100.00;97441.81;5000507;28;20212;-64
2022/11/03 03:49:07;;;;;;;33.00;8.77;;;;;;;3.54;100.00;97444.00;4954510;28;20481;-63
2022/11/03 03:51:37;;;;;;;55.47;13.73;;;;;;;3.38;100.00;97431.41;4998661;28;21474;-62
2022/11/03 03:54:05;;;;;;;38.53;11.10;;;;;;;3.39;100.00;97426.06;5003394;28;20482;-64
2022/11/03 03:56:37;;;;;;;66.87;13.27;;;;;;;3.45;100.00;97422.91;4976140;28;21418;-64
2022/11/03 03:59:07;;;;;;;14.33;8.77;;;;;;;3.48;100.00;97413.97;5002089;28;20219;-64
2022/11/03 04:01:35;;;;;;;31.10;12.27;;;;;;;3.39;100.00;97415.56;5001271;28;20884;-63
2022/11/03 04:04:04;;;;;;;14.20;9.03;;;;;;;3.39;100.00;97427.84;4956258;28;20206;-65
2022/11/03 04:06:32;;;;;;;22.77;9.23;;;;;;;3.30;100.00;97432.09;4998191;28;20298;-65
2022/11/03 04:09:00;;;;;;;39.63;9.97;;;;;;;3.29;100.00;97433.06;4999935;28;20445;-64
2022/11/03 04:22:33;;;;;;;21.13;10.13;;;;;;;2.96;100.00;97427.13;5001297;28;20210;-64
2022/11/03 04:25:02;;;;;;;8.50;7.77;;;;;;;2.96;100.00;97429.72;4998214;28;20834;-66
2022/11/03 04:27:32;;;;;;;11.63;7.83;;;;;;;2.97;100.00;97418.31;4997988;28;20819;-64
2022/11/03 04:30:07;;;;;;;11.20;7.63;;;;;;;3.02;100.00;97410.88;5001390;28;20468;-64
2022/11/03 04:32:35;;;;;;;29.70;12.67;;;;;;;3.06;100.00;97407.03;4998376;28;20755;-62
2022/11/03 04:35:11;;;;;;;18.30;9.03;;;;;;;3.04;100.00;97406.34;4957983;28;20404;-64
2022/11/03 04:37:39;;;;;;;28.00;9.40;;;;;;;3.13;100.00;97399.50;5002434;28;20218;-62
2022/11/03 04:40:16;;;;;;;18.23;7.10;;;;;;;3.06;100.00;97393.13;5005126;28;20796;-64
2022/11/03 04:42:44;;;;;;;24.23;9.93;;;;;;;3.10;100.00;97402.38;5003855;28;20571;-62
2022/11/03 04:45:22;;;;;;;17.47;8.43;;;;;;;3.11;100.00;97396.19;5003796;28;20773;-63
2022/11/03 04:47:52;;;;;;;18.13;9.03;;;;;;;3.05;100.00;97389.69;5001320;28;20734;-62
2022/11/03 04:50:22;;;;;;;24.50;8.90;;;;;;;3.03;100.00;97388.97;4956893;28;20765;-60
2022/11/03 04:52:55;;;;;;;14.67;8.47;;;;;;;2.90;100.00;97383.94;4997764;28;20250;-62
2022/11/03 04:55:23;;;;;;;34.77;10.73;;;;;;;2.96;100.00;97391.28;5004522;28;20772;-63
2022/11/03 04:57:55;;;;;;;46.50;9.53;;;;;;;2.99;100.00;97383.16;5001826;28;20313;-62
2022/11/03 05:00:25;;;;;;;25.17;9.57;;;;;;;2.99;100.00;97380.53;5005778;28;20950;-62
2022/11/03 05:02:53;;;;;;;22.03;9.10;;;;;;;3.00;100.00;97376.97;5001791;28;21360;-63
2022/11/03 05:05:25;;;;;;;17.47;6.80;;;;;;;2.85;100.00;97379.13;4928374;28;20960;-62
2022/11/03 05:07:54;;;;;;;15.43;7.70;;;;;;;2.92;100.00;97371.56;5004327;28;20228;-61
2022/11/03 05:10:25;;;;;;;9.77;6.80;;;;;;;2.96;100.00;97369.53;4983778;28;20202;-63
2022/11/03 05:12:54;;;;;;;13.00;7.73;;;;;;;3.00;100.00;97363.88;5004624;28;21765;-59
2022/11/03 05:15:30;;;;;;;11.27;7.77;;;;;;;3.00;100.00;97361.25;5002450;28;20886;-62
2022/11/03 05:18:00;;;;;;;18.73;8.67;;;;;;;3.00;100.00;97355.22;4997404;28;20234;-63
2022/11/03 05:20:32;;;;;;;8.90;6.63;;;;;;;3.03;100.00;97353.16;5001700;28;20336;-62
2022/11/03 05:23:04;;;;;;;19.93;10.27;;;;;;;2.98;100.00;97341.44;4956782;28;20232;-65
2022/11/03 05:25:39;;;;;;;23.37;10.10;;;;;;;2.91;100.00;97324.59;4922002;28;20965;-64
2022/11/03 05:28:20;;;;;;;31.53;10.53;;;;;;;2.79;100.00;97337.75;5000432;28;20657;-65
2022/11/03 05:30:51;;;;;;;16.60;8.70;;;;;;;2.86;100.00;97330.22;4975245;28;20214;-64
2022/11/03 05:33:22;;;;;;;22.13;8.37;;;;;;;2.85;100.00;97332.03;5000073;28;20449;-63
2022/11/03 05:35:51;;;;;;;36.60;9.50;;;;;;;2.84;100.00;97332.97;4983387;28;20516;-64
2022/11/03 05:38:21;;;;;;;17.90;6.53;;;;;;;2.80;100.00;97326.31;5001661;28;20251;-66
2022/11/03 05:40:53;;;;;;;10.87;5.87;;;;;;;2.82;100.00;97323.59;4957038;28;21416;-63
2022/11/03 05:43:21;;;;;;;19.60;7.37;;;;;;;2.73;100.00;97318.19;5000421;28;20211;-61
2022/11/03 05:45:53;;;;;;;13.60;6.57;;;;;;;2.67;100.00;97318.72;4985547;28;20234;-64
2022/11/03 05:48:29;;;;;;;30.93;11.53;;;;;;;2.55;100.00;97314.50;5003790;28;20453;-64
2022/11/03 05:50:59;;;;;;;21.90;7.80;;;;;;;2.69;100.00;97323.81;4984701;28;20635;-64
2022/11/03 05:53:30;;;;;;;6.90;6.27;;;;;;;2.74;100.00;97325.09;5002764;28;20588;-65
2022/11/03 05:56:00;;;;;;;21.53;8.60;;;;;;;2.65;100.00;97318.03;4969727;28;20226;-67
2022/11/03 05:58:31;;;;;;;29.70;8.70;;;;;;;2.41;100.00;97319.13;4964844;28;20227;-62
2022/11/03 06:01:05;;;;;;;9.47;7.23;;;;;;;2.50;100.00;97314.06;5005901;28;20203;-64
2022/11/03 06:03:36;;;;;;;7.10;6.20;;;;;;;2.49;100.00;97309.81;4999961;28;20893;-64
2022/11/03 06:06:13;;;;;;;40.60;9.50;;;;;;;2.46;100.00;97310.88;4979220;28;20897;-62
2022/11/03 06:08:42;;;;;;;35.90;10.83;;;;;;;2.46;100.00;97311.72;5003736;28;20222;-64
2022/11/03 06:11:22;;;;;;;16.57;9.80;;;;;;;2.57;100.00;97307.34;5007679;28;20207;-62
2022/11/03 06:13:50;;;;;;;14.77;7.77;;;;;;;2.58;100.00;97302.00;4963170;28;20235;-64
2022/11/03 06:16:32;;;;;;;6.80;6.10;;;;;;;2.65;100.00;97304.94;5005945;28;20534;-64
2022/11/03 06:19:02;;;;;;;26.33;10.10;;;;;;;2.63;100.00;97306.84;5002207;28;20555;-63
2022/11/03 06:21:30;;;;;;;9.87;6.27;;;;;;;2.72;100.00;97310.47;4976604;28;20215;-64
2022/11/03 06:23:59;;;;;;;8.27;7.00;;;;;;;2.80;100.00;97297.53;5000451;28;21745;-63
2022/11/03 06:26:27;;;;;;;25.93;9.37;;;;;;;2.88;100.00;97295.13;5004128;28;20195;-62
2022/11/03 06:28:56;;;;;;;16.63;8.87;;;;;;;2.79;100.00;97289.84;4956301;28;20349;-62
2022/11/03 06:31:28;;;;;;;14.23;8.60;;;;;;;2.77;100.00;97289.16;4991215;28;20750;-67
2022/11/03 06:33:58;;;;;;;11.70;7.83;;;;;;;2.70;100.00;97296.69;4973964;28;20951;-62
2022/11/03 06:36:28;;;;;;;7.13;6.57;;;;;;;2.77;100.00;97292.56;4997102;28;20232;-64
2022/11/03 06:38:58;;;;;;;9.77;8.73;;;;;;;2.88;100.00;97292.50;4954123;28;20437;-65
2022/11/03 06:41:28;;;;;;;10.00;6.63;;;;;;;2.88;100.00;97276.78;5001923;28;20289;-64
2022/11/03 06:43:56;;;;;;;11.07;7.80;;;;;;;2.87;100.00;97283.00;4962132;28;20215;-65
2022/11/03 06:46:26;;;;;;;13.60;8.03;;;;;;;3.01;100.00;97267.88;5002035;28;20211;-64
2022/11/03 06:48:58;;;;;;;23.03;8.70;;;;;;;2.70;100.00;97273.13;5004048;28;20997;-64
2022/11/03 06:51:28;;;;;;;23.73;11.47;;;;;;;2.65;100.00;97272.72;5003459;28;21285;-64
2022/11/03 06:53:58;;;;;;;8.50;7.50;;;;;;;2.73;100.00;97273.72;4965019;28;21042;-65
2022/11/03 06:56:30;;;;;;;8.20;7.47;;;;;;;2.67;100.00;97269.00;4985767;28;20214;-64
2022/11/03 06:58:59;;;;;;;11.47;7.87;;;;;;;2.79;100.00;97276.75;5002815;28;20224;-60
2022/11/03 07:01:31;;;;;;;11.70;7.77;;;;;;;3.03;100.00;97266.78;4972429;28;21189;-64
2022/11/03 07:04:01;;;;;;;17.27;7.77;;;;;;;3.22;100.00;97259.91;5006715;28;20200;-63
2022/11/03 07:06:32;;;;;;;11.43;8.50;;;;;;;3.30;100.00;97252.19;5000020;28;20398;-63
2022/11/03 07:09:03;;;;;;;34.83;10.13;;;;;;;3.15;100.00;97254.38;4958867;28;20420;-60
2022/11/03 07:11:34;;;;;;;7.97;7.37;;;;;;;3.39;100.00;97247.09;4978848;28;20323;-63
2022/11/03 07:14:11;;;;;;;7.23;6.73;;;;;;;3.62;100.00;97245.88;5003280;28;20383;-62
2022/11/03 07:16:43;;;;;;;7.33;6.73;;;;;;;3.78;100.00;97249.72;4935992;28;20477;-64
2022/11/03 07:19:15;;;;;;;8.30;7.50;;;;;;;3.85;100.00;97245.59;5001010;28;20650;-63
2022/11/03 07:21:45;;;;;;;8.17;7.57;;;;;;;3.87;100.00;97245.44;5001146;28;20344;-63
2022/11/03 07:24:18;;;;;;;12.30;6.80;;;;;;;3.79;100.00;97234.84;4952696;28;20210;-64
2022/11/03 07:26:46;;;;;;;8.30;7.47;;;;;;;3.87;100.00;97227.09;4967754;28;20199;-61
2022/11/03 07:29:19;;;;;;;7.40;6.90;;;;;;;3.98;100.00;97226.09;5000961;28;20298;-63
2022/11/03 07:31:50;;;;;;;7.17;6.40;;;;;;;3.99;100.00;97230.38;4921581;28;20492;-63
2022/11/03 07:34:21;;;;;;;11.50;7.23;;;;;;;3.96;100.00;97228.84;4973418;28;20226;-63
2022/11/03 07:36:50;;;;;;;11.67;7.03;;;;;;;4.04;100.00;97230.78;4999437;28;20591;-64
2022/11/03 07:39:23;;;;;;;11.23;6.77;;;;;;;3.90;100.00;97232.03;4986478;28;20619;-65
2022/11/03 07:41:51;;;;;;;12.17;6.27;;;;;;;3.88;100.00;97229.59;5001033;28;20214;-63
2022/11/03 07:44:20;;;;;;;14.83;8.77;;;;;;;3.90;100.00;97225.03;5000938;28;20222;-66
2022/11/03 07:46:51;;;;;;;8.23;7.07;;;;;;;4.00;100.00;97235.50;4963897;28;20319;-63
2022/11/03 07:49:27;;;;;;;7.43;6.73;;;;;;;4.20;100.00;97227.56;5003745;28;20277;-67
2022/11/03 07:51:57;;;;;;;9.63;7.67;;;;;;;3.99;100.00;97220.75;5001509;28;20203;-66
2022/11/03 07:54:29;;;;;;;8.33;7.73;;;;;;;4.23;100.00;97218.59;5003627;28;20219;-65
2022/11/03 07:56:59;;;;;;;19.03;8.37;;;;;;;4.22;100.00;97207.28;4980426;28;21278;-64
2022/11/03 07:59:29;;;;;;;13.33;7.23;;;;;;;4.10;100.00;97206.63;5003547;28;20234;-64
2022/11/03 08:01:59;;;;;;;32.17;7.97;;;;;;;4.15;100.00;97201.75;4970139;28;20756;-64
2022/11/03 08:04:29;;;;;;;10.70;6.33;;;;;;;4.00;100.00;97204.03;5003193;28;20215;-64
2022/11/03 08:06:57;;;;;;;6.83;6.13;;;;;;;4.13;100.00;97192.41;5001676;28;20207;-63
2022/11/03 08:09:26;;;;;;;11.30;7.30;;;;;;;4.23;100.00;97185.31;5007957;28;20223;-65
2022/11/03 08:11:54;;;;;;;23.70;9.67;;;;;;;4.28;100.00;97179.66;4980809;28;20397;-63
2022/11/03 08:14:22;;;;;;;17.83;8.70;;;;;;;4.16;100.00;97173.75;5005535;28;20741;-62
2022/11/03 08:16:50;;;;;;;13.07;8.03;;;;;;;4.27;100.00;97170.94;5002103;28;20212;-61
2022/11/03 08:19:20;;;;;;;6.40;5.90;;;;;;;4.37;100.00;97164.84;4961832;28;20595;-59
2022/11/03 08:21:48;;;;;;;6.50;6.00;;;;;;;4.30;100.00;97161.97;5004335;28;20204;-63
2022/11/03 08:24:16;;;;;;;5.90;5.47;;;;;;;4.39;100.00;97160.28;5007003;28;20597;-63
2022/11/03 08:26:45;;;;;;;6.23;5.73;;;;;;;4.31;100.00;97153.94;4981346;28;20207;-62
2022/11/03 08:29:13;;;;;;;6.03;5.53;;;;;;;4.60;100.00;97155.59;5006603;28;20418;-66
2022/11/03 08:31:41;;;;;;;6.10;5.60;;;;;;;4.86;100.00;97152.28;5005776;28;20207;-65
2022/11/03 08:34:09;;;;;;;6.70;5.00;;;;;;;5.10;100.00;97150.84;4956755;28;20238;-63
2022/11/03 08:36:39;;;;;;;4.77;4.47;;;;;;;5.71;100.00;97140.50;5003666;28;20219;-62
2022/11/03 08:39:07;;;;;;;5.80;5.40;;;;;;;6.99;100.00;97136.28;5004565;28;20405;-62
2022/11/03 08:41:35;;;;;;;5.17;4.87;;;;;;;7.59;100.00;97120.31;4982397;28;20207;-63
2022/11/03 08:44:04;;;;;;;4.67;4.37;;;;;;;7.05;100.00;97108.47;5003513;28;20378;-62
2022/11/03 08:46:32;;;;;;;5.17;4.87;;;;;;;6.98;100.00;97105.66;5005916;28;20456;-63
2022/11/03 08:49:00;;;;;;;5.40;5.10;;;;;;;6.55;100.00;97097.03;4959764;28;20509;-65
2022/11/03 08:51:29;;;;;;;4.97;4.57;;;;;;;6.76;100.00;97084.22;5005474;28;20610;-60
2022/11/03 08:53:59;;;;;;;4.30;3.90;;;;;;;6.89;100.00;97088.22;5002130;28;20699;-65
2022/11/03 08:56:27;;;;;;;4.80;4.40;;;;;;;6.79;100.00;97078.63;5006684;28;20227;-63
2022/11/03 08:58:55;;;;;;;3.80;3.60;;;;;;;6.80;100.00;97071.56;4981069;28;20944;-63
2022/11/03 09:01:23;;;;;;;4.30;3.90;;;;;;;6.98;100.00;97074.06;5005323;28;20660;-59
2022/11/03 09:03:52;;;;;;;3.67;3.37;;;;;;;7.10;100.00;97056.13;4956339;28;20278;-63
2022/11/03 09:06:20;;;;;;;3.90;3.60;;;;;;;7.64;100.00;97054.72;5002573;28;22299;-62
2022/11/03 09:08:49;;;;;;;4.07;3.80;;;;;;;7.90;100.00;97054.47;5002503;28;20865;-64
2022/11/03 09:11:38;;;;;;;4.30;3.90;;;;;;;7.73;100.00;97053.69;4999227;28;21070;-65
2022/11/03 09:14:07;;;;;;;5.70;3.93;;;;;;;7.75;100.00;97050.91;4992227;28;20219;-63
2022/11/03 09:16:35;;;;;;;3.87;3.60;;;;;;;7.68;100.00;97043.69;4992368;28;20721;-64
2022/11/03 09:19:03;;;;;;;4.10;3.80;;;;;;;8.03;100.00;97047.84;5005656;28;20794;-63
2022/11/03 09:21:31;;;;;;;4.70;4.30;;;;;;;8.18;100.00;97040.84;4948174;28;20211;-62
2022/11/03 09:23:59;;;;;;;4.40;4.10;;;;;;;8.41;100.00;97024.25;5006248;28;20207;-58
2022/11/03 09:26:28;;;;;;;4.20;3.90;;;;;;;8.37;100.00;97029.03;5004890;28;20282;-58
2022/11/03 09:28:57;;;;;;;3.73;3.43;;;;;;;8.22;100.00;97014.94;4987522;28;20238;-65
2022/11/03 09:31:27;;;;;;;4.90;3.80;;;;;;;8.35;100.00;97009.91;5004920;28;20195;-60
2022/11/03 09:33:56;;;;;;;3.80;3.50;;;;;;;8.41;100.00;97008.41;5007138;28;20233;-58
2022/11/03 09:36:24;;;;;;;4.07;3.77;;;;;;;8.42;100.00;97006.56;4953849;28;20465;-63
2022/11/03 09:38:52;;;;;;;4.50;4.10;;;;;;;8.59;100.00;97000.22;5006343;28;20237;-63
2022/11/03 09:41:20;;;;;;;4.10;3.80;;;;;;;8.76;100.00;97003.59;4952417;28;20223;-65
2022/11/03 09:44:03;;;;;;;5.03;4.73;;;;;;;8.94;100.00;96998.00;4983353;28;20225;-60
2022/11/03 09:46:32;;;;;;;5.53;5.03;;;;;;;9.20;100.00;96999.41;4987014;28;20208;-65
2022/11/03 09:49:00;;;;;;;5.03;4.73;;;;;;;9.14;100.00;96994.03;4999926;28;20518;-61
2022/11/03 09:51:28;;;;;;;5.50;5.07;;;;;;;9.15;100.00;96993.81;5001529;28;20535;-61
2022/11/03 09:53:58;;;;;;;5.07;4.47;;;;;;;9.25;100.00;96988.28;4977626;28;20605;-62
2022/11/03 09:56:26;;;;;;;4.97;4.67;;;;;;;9.30;100.00;96978.00;4954518;28;20228;-64
2022/11/03 09:58:55;;;;;;;5.07;4.57;;;;;;;9.19;100.00;96973.97;5002802;28;20281;-62
2022/11/03 10:01:24;;;;;;;4.97;4.67;;;;;;;9.23;100.00;96977.06;4983911;28;20216;-63
2022/11/03 10:03:56;;;;;;;6.20;5.60;;;;;;;9.19;100.00;96973.16;5002022;28;20218;-61
2022/11/03 10:06:24;;;;;;;5.70;5.37;;;;;;;9.55;100.00;96956.59;5001231;28;20211;-62
2022/11/03 10:08:52;;;;;;;5.77;5.27;;;;;;;9.26;100.00;96951.09;5003540;28;21019;-61
2022/11/03 10:11:21;;;;;;;4.43;4.13;;;;;;;9.40;100.00;96946.00;4955330;28;20517;-64
2022/11/03 10:13:52;;;;;;;5.13;4.63;;;;;;;9.45;100.00;96948.91;5000999;28;20694;-63
2022/11/03 10:16:22;;;;;;;4.83;4.53;;;;;;;9.43;100.00;96942.16;4986794;28;20227;-64
2022/11/03 10:18:52;;;;;;;4.80;4.50;;;;;;;9.69;100.00;96934.56;5000126;28;20396;-63
2022/11/03 10:21:23;;;;;;;10.13;9.07;;;;;;;9.85;100.00;96928.25;5002774;28;20204;-63
2022/11/03 10:23:51;;;;;;;4.77;4.47;;;;;;;10.05;100.00;96925.03;5004489;28;20363;-64
2022/11/03 10:26:21;;;;;;;5.80;4.77;;;;;;;10.03;100.00;96913.78;4973436;28;20204;-64
2022/11/03 10:29:02;;;;;;;4.10;3.80;;;;;;;9.85;100.00;96914.22;4995258;28;20235;-62
2022/11/03 10:31:35;;;;;;;4.87;4.40;;;;;;;9.98;100.00;96909.06;5000237;28;21026;-61
2022/11/03 10:34:05;;;;;;;4.27;4.07;;;;;;;10.01;100.00;96915.00;4979980;28;20598;-62
2022/11/03 10:36:34;;;;;;;3.97;3.70;;;;;;;10.03;100.00;96902.41;5000973;28;21648;-60
2022/11/03 10:39:23;;;;;;;4.37;4.07;;;;;;;10.02;100.00;96909.50;5006917;28;20229;-62
2022/11/03 10:41:56;;;;;;;4.40;4.03;;;;;;;10.36;100.00;96907.22;5005085;28;20214;-64
2022/11/03 10:44:27;;;;;;;4.70;4.30;;;;;;;10.18;100.00;96911.09;4960813;28;20219;-63
2022/11/03 10:46:59;;;;;;;3.57;3.37;;;;;;;10.16;98.88;96907.00;5005471;28;20210;-66
2022/11/03 10:49:30;;;;;;;4.20;3.80;;;;;;;10.26;96.94;96902.22;4980361;28;20223;-61
2022/11/03 10:52:06;;;;;;;3.93;3.73;;;;;;;10.09;97.56;96896.34;5006074;28;20195;-61
2022/11/03 10:54:36;;;;;;;3.90;3.60;;;;;;;10.12;98.10;96894.16;5002037;28;20511;-61
2022/11/03 10:57:05;;;;;;;3.73;3.43;;;;;;;10.28;97.90;96889.59;5004358;28;20222;-62
2022/11/03 10:59:36;;;;;;;4.27;3.77;;;;;;;10.46;96.60;96883.09;4960019;28;20314;-61
2022/11/03 11:02:14;;;;;;;3.73;3.43;;;;;;;10.35;96.77;96871.94;5002395;28;20719;-60
2022/11/03 11:04:45;;;;;;;4.77;4.33;;;;;;;10.32;96.47;96874.97;4991730;28;20455;-63
2022/11/03 11:07:20;;;;;;;4.27;3.97;;;;;;;10.30;98.79;96873.53;5002047;28;20211;-62
2022/11/03 11:09:48;;;;;;;5.10;4.30;;;;;;;10.33;99.13;96862.56;5002798;28;20226;-61
2022/11/03 11:12:18;;;;;;;6.83;6.17;;;;;;;10.33;99.59;96860.72;5001259;28;20671;-63
2022/11/03 11:14:54;;;;;;;6.37;5.77;;;;;;;10.59;99.32;96862.00;4956549;28;20907;-63
2022/11/03 11:17:46;;;;;;;7.73;4.30;;;;;;;10.25;100.00;96855.56;4997453;28;20595;-64
2022/11/03 11:20:40;;;;;;;3.80;3.60;;;;;;;10.48;100.00;96855.38;4978914;28;21324;-63
2022/11/03 11:23:47;;;;;;;4.50;4.10;;;;;;;10.72;100.00;96855.97;4998549;28;20923;-62
2022/11/03 11:26:40;;;;;;;4.00;3.77;;;;;;;10.64;97.76;96853.50;4992470;28;22985;-61
2022/11/03 11:29:41;;;;;;;4.30;3.90;;;;;;;10.73;98.05;96849.66;5002633;28;20698;-65
2022/11/03 11:32:46;;;;;;;3.77;3.50;;;;;;;10.73;98.42;96841.72;5002195;28;20991;-65
2022/11/03 11:36:02;;;;;;;3.87;3.57;;;;;;;10.42;98.62;96835.81;4955717;28;21736;-64
2022/11/03 11:39:08;;;;;;;3.63;3.43;;;;;;;10.79;98.42;96840.09;5005427;28;20234;-62
2022/11/03 11:42:12;;;;;;;3.47;3.27;;;;;;;10.92;97.75;96840.22;4988596;28;21566;-63
2022/11/03 11:44:57;;;;;;;4.20;3.90;;;;;;;10.92;97.02;96834.91;5005156;28;20230;-64
2022/11/03 11:47:47;;;;;;;4.73;4.33;;;;;;;10.86;96.15;96825.09;4970244;28;21076;-63
2022/11/03 11:50:31;;;;;;;4.50;4.10;;;;;;;10.83;95.64;96815.69;4983201;28;20317;-62
2022/11/03 11:53:10;;;;;;;4.10;3.90;;;;;;;10.95;96.15;96821.28;5007637;28;20621;-59
2022/11/03 11:55:45;;;;;;;5.47;5.03;;;;;;;11.13;95.79;96814.63;4986868;28;20246;-64
2022/11/03 11:58:38;;;;;;;4.67;4.37;;;;;;;11.06;92.95;96811.97;5008255;28;20240;-64
2022/11/03 12:01:22;;;;;;;4.13;3.90;;;;;;;11.07;93.18;96804.81;5008196;28;20238;-61